createdAt,value
2019-02-04T00:01:49.135Z,100248.77
2019-02-04T00:07:53.787Z,100255.77
2019-02-04T00:13:59.723Z,100268.33
2019-02-04T00:20:07.575Z,100261.30
2019-02-04T00:26:13.571Z,100262.78
2019-02-04T00:32:18.273Z,100263.14
2019-02-04T00:38:23.191Z,100274.86
2019-02-04T00:44:27.852Z,100268.30
2019-02-04T00:50:32.675Z,100260.56
2019-02-04T00:56:37.362Z,100261.24
2019-02-04T01:02:42.278Z,100269.71
2019-02-04T01:08:47.599Z,100273.97
2019-02-04T01:14:52.307Z,100279.17
2019-02-04T01:20:56.959Z,100281.05
2019-02-04T01:27:01.648Z,100271.81
2019-02-04T01:33:06.352Z,100290.44
2019-02-04T01:39:11.242Z,100293.98
2019-02-04T01:45:15.983Z,100305.69
2019-02-04T01:51:20.562Z,100315.39
2019-02-04T01:57:25.485Z,100326.27
2019-02-04T02:03:30.957Z,100330.91
2019-02-04T02:09:35.756Z,100336.20
2019-02-04T02:15:41.162Z,100341.67
2019-02-04T02:21:45.913Z,100352.93
2019-02-04T02:27:50.645Z,100351.04
2019-02-04T02:33:55.812Z,100365.69
2019-02-04T02:40:00.518Z,100370.64
2019-02-04T02:46:05.725Z,100357.29
2019-02-04T02:52:11.229Z,100364.62
2019-02-04T02:58:15.889Z,100387.95
2019-02-04T03:04:20.527Z,100389.87
2019-02-04T03:10:28.964Z,100393.41
2019-02-04T03:16:33.666Z,100413.97
2019-02-04T03:22:38.763Z,100411.61
2019-02-04T03:28:43.634Z,100407.59
2019-02-04T03:34:48.252Z,100406.75
2019-02-04T03:40:53.081Z,100406.13
2019-02-04T03:46:57.640Z,100407.73
2019-02-04T03:53:05.459Z,100406.81
2019-02-04T03:59:10.235Z,100410.80
2019-02-04T04:05:15.198Z,100416.84
2019-02-04T04:11:20.041Z,100418.09
2019-02-04T04:17:24.668Z,100418.91
2019-02-04T04:23:30.335Z,100424.62
2019-02-04T04:29:35.065Z,100435.70
2019-02-04T04:35:40.138Z,100421.77
2019-02-04T04:41:44.943Z,100421.62
2019-02-04T04:47:49.736Z,100421.77
2019-02-04T04:53:54.566Z,100427.52
2019-02-04T04:59:59.604Z,100426.60
2019-02-04T05:06:04.323Z,100419.28
2019-02-04T05:12:09.254Z,100423.25
2019-02-04T05:18:17.596Z,100435.52
2019-02-04T05:24:22.304Z,100431.55
2019-02-04T05:30:27.228Z,100435.94
2019-02-04T05:36:32.299Z,100436.33
2019-02-04T05:42:37.095Z,100442.95
2019-02-04T05:48:49.160Z,100450.66
2019-02-04T05:54:49.226Z,100445.41
2019-02-04T06:00:53.936Z,100448.28
2019-02-04T06:07:00.176Z,100455.97
2019-02-04T06:13:04.952Z,100461.70
2019-02-04T06:19:11.877Z,100469.30
2019-02-04T06:25:16.452Z,100471.50
2019-02-04T06:31:22.917Z,100457.30
2019-02-04T06:37:27.650Z,100460.91
2019-02-04T06:43:32.668Z,100463.87
2019-02-04T06:49:37.591Z,100479.93
2019-02-04T06:55:42.676Z,100486.80
2019-02-04T07:01:47.390Z,100491.90
2019-02-04T07:07:51.942Z,100496.82
2019-02-04T07:13:56.509Z,100504.57
2019-02-04T07:20:02.007Z,100517.77
2019-02-04T07:26:07.016Z,100514.20
2019-02-04T07:32:12.240Z,100509.08
2019-02-04T07:38:16.895Z,100513.25
2019-02-04T07:44:24.848Z,100509.42
2019-02-04T07:50:29.557Z,100511.39
2019-02-04T07:56:34.110Z,100507.84
2019-02-04T08:02:38.942Z,100513.70
2019-02-04T08:08:44.114Z,100513.34
2019-02-04T08:14:48.712Z,100513.25
2019-02-04T08:20:54.140Z,100504.33
2019-02-04T08:26:58.996Z,100507.40
2019-02-04T08:33:03.885Z,100508.73
2019-02-04T08:39:09.002Z,100518.29
2019-02-04T08:45:15.264Z,100520.33
2019-02-04T08:51:20.046Z,100514.89
2019-02-04T08:57:24.729Z,100512.77
2019-02-04T09:03:29.357Z,100510.12
2019-02-04T09:09:34.353Z,100506.48
2019-02-04T09:15:39.478Z,100500.12
2019-02-04T09:21:44.115Z,100493.91
2019-02-04T09:27:48.823Z,100498.23
2019-02-04T09:33:53.486Z,100497.86
2019-02-04T09:39:58.059Z,100495.95
2019-02-04T09:46:05.811Z,100492.47
2019-02-04T09:52:14.094Z,100488.11
2019-02-04T09:58:18.982Z,100491.92
2019-02-04T10:04:23.678Z,100496.38
2019-02-04T10:10:31.245Z,100494.25
2019-02-04T10:16:36.075Z,100486.69
2019-02-04T10:22:40.949Z,100492.33
2019-02-04T10:28:46.066Z,100485.23
2019-02-04T10:34:51.711Z,100480.05
2019-02-04T10:40:56.418Z,100476.15
2019-02-04T10:47:01.139Z,100476.05
2019-02-04T10:53:07.657Z,100465.24
2019-02-04T10:59:12.623Z,100447.19
2019-02-04T11:05:24.451Z,100444.47
2019-02-04T11:11:29.176Z,100435.75
2019-02-04T11:17:33.950Z,100430.02
2019-02-04T11:23:40.546Z,100416.25
2019-02-04T11:29:45.243Z,100408.88
2019-02-04T11:35:50.098Z,100412.03
2019-02-04T11:41:54.791Z,100408.04
2019-02-04T11:48:00.176Z,100406.23
2019-02-04T11:54:05.029Z,100403.48
2019-02-04T12:00:19.725Z,100390.26
2019-02-04T12:06:24.298Z,100375.58
2019-02-04T12:12:30.124Z,100377.16
2019-02-04T12:18:34.896Z,100370.50
2019-02-04T12:24:40.111Z,100361.98
2019-02-04T12:30:45.577Z,100355.84
2019-02-04T12:36:50.223Z,100350.48
2019-02-04T12:42:54.992Z,100353.92
2019-02-04T12:48:59.619Z,100349.05
2019-02-04T12:55:06.630Z,100344.70
2019-02-04T13:01:11.904Z,100349.11
2019-02-04T13:07:16.705Z,100351.98
2019-02-04T13:13:21.459Z,100343.81
2019-02-04T13:19:26.047Z,100330.12
2019-02-04T13:25:31.419Z,100329.02
2019-02-04T13:31:35.983Z,100320.81
2019-02-04T13:37:40.848Z,100315.09
2019-02-04T13:43:45.897Z,100297.73
2019-02-04T13:49:50.518Z,100300.84
2019-02-04T13:55:55.152Z,100303.60
2019-02-04T14:01:59.779Z,100307.22
2019-02-04T14:08:06.205Z,100302.64
2019-02-04T14:14:10.955Z,100312.17
2019-02-04T14:20:26.749Z,100307.20
2019-02-04T14:26:31.374Z,100305.92
2019-02-04T14:32:36.065Z,100307.00
2019-02-04T14:38:40.898Z,100311.70
2019-02-04T14:44:48.804Z,100308.35
2019-02-04T14:51:23.008Z,100304.72
2019-02-04T14:58:00.710Z,100310.41
2019-02-04T15:04:21.452Z,100301.80
2019-02-04T15:10:36.231Z,100304.53
2019-02-04T15:16:48.031Z,100297.22
2019-02-04T15:23:07.497Z,100285.61
2019-02-04T15:29:16.784Z,100279.01
2019-02-04T15:36:06.324Z,100273.86
2019-02-04T15:42:32.385Z,100275.13
2019-02-04T15:48:44.059Z,100278.27
2019-02-04T15:54:48.803Z,100273.39
2019-02-04T16:00:53.746Z,100263.75
2019-02-04T16:06:58.369Z,100261.78
2019-02-04T16:13:03.726Z,100259.65
2019-02-04T16:19:08.285Z,100244.66
2019-02-04T16:25:14.962Z,100241.53
2019-02-04T16:31:19.552Z,100257.23
2019-02-04T16:37:24.455Z,100252.00
2019-02-04T16:43:29.465Z,100253.55
2019-02-04T16:49:34.134Z,100249.58
2019-02-04T16:55:38.818Z,100261.62
2019-02-04T17:01:43.621Z,100264.77
2019-02-04T17:07:48.897Z,100266.58
2019-02-04T17:13:53.540Z,100270.95
2019-02-04T17:19:58.180Z,100270.50
2019-02-04T17:26:02.817Z,100280.37
2019-02-04T17:32:07.519Z,100274.53
2019-02-04T17:38:12.213Z,100271.34
2019-02-04T17:44:17.073Z,100260.48
2019-02-04T17:50:23.257Z,100248.94
2019-02-04T17:56:28.028Z,100252.00
2019-02-04T18:02:32.590Z,100259.93
2019-02-04T18:08:37.158Z,100259.12
2019-02-04T18:14:43.019Z,100261.26
2019-02-04T18:20:47.708Z,100256.97
2019-02-04T18:26:52.526Z,100257.27
2019-02-04T18:32:57.352Z,100249.48
2019-02-04T18:39:02.420Z,100253.58
2019-02-04T18:45:14.535Z,100251.44
2019-02-04T18:51:21.627Z,100253.93
2019-02-04T18:57:26.830Z,100244.09
2019-02-04T19:03:31.531Z,100234.38
2019-02-04T19:09:36.101Z,100235.80
2019-02-04T19:15:40.936Z,100240.75
2019-02-04T19:21:45.686Z,100225.59
2019-02-04T19:27:51.718Z,100221.14
2019-02-04T19:33:56.416Z,100232.92
2019-02-04T19:40:01.227Z,100224.13
2019-02-04T19:46:09.285Z,100230.59
2019-02-04T19:52:14.134Z,100221.57
2019-02-04T19:58:19.020Z,100208.81
2019-02-04T20:04:23.691Z,100208.34
2019-02-04T20:10:33.997Z,100209.99
2019-02-04T20:16:40.537Z,100208.69
2019-02-04T20:22:45.387Z,100212.89
2019-02-04T20:28:50.011Z,100219.48
2019-02-04T20:34:54.640Z,100220.20
2019-02-04T20:40:59.348Z,100221.22
2019-02-04T20:47:04.212Z,100208.38
2019-02-04T20:53:08.858Z,100207.02
2019-02-04T20:59:13.655Z,100205.41
2019-02-04T21:05:18.663Z,100203.71
2019-02-04T21:11:23.289Z,100200.23
2019-02-04T21:17:29.253Z,100200.23
2019-02-04T21:23:33.872Z,100190.08
2019-02-04T21:29:38.484Z,100191.55
2019-02-04T21:35:43.245Z,100185.20
2019-02-04T21:41:48.205Z,100184.95
2019-02-04T21:47:53.636Z,100202.34
2019-02-04T21:53:58.526Z,100211.92
2019-02-04T22:00:04.987Z,100227.78
2019-02-04T22:06:11.697Z,100238.42
2019-02-04T22:12:16.385Z,100243.72
2019-02-04T22:18:20.949Z,100241.30
2019-02-04T22:24:25.893Z,100237.05
2019-02-04T22:30:31.637Z,100217.87
2019-02-04T22:36:36.253Z,100208.84
2019-02-04T22:42:41.121Z,100208.50
2019-02-04T22:48:46.026Z,100210.70
2019-02-04T22:54:50.578Z,100210.18
2019-02-04T23:01:05.582Z,100202.87
